Aérodrome :
LOGIN :

S'inscrire | Disclaimer

   EN    FR    IT 

 










Légende :    VFR   VFR Marginal   IFR   IFR Intensif   IFR Très Intensif
Visi : 
Plafond : 
>= 8 km
>= 3000ft
5 à 8 km
1000 à 3000 ft
1500m à 5 km
500 à 1000 ft
800 à 1500m
200 à 500 ft
< 800m
< 200 ft
Symboles :   Orages  Brouillard  Fortes neiges  Fortes précipitations  Vent > 20 kt
SIGMETs :   Divers  Orages  Givrage  Turbulence  Onde Orograph.  Cendres Volcan.







- Altitude de l'aérodrome : 238 ft
- Code IATA : FAB
- Voir les cartes d'approche


EGLF - Farnborough

DERNIER METAR :
  • 211220Z 25017G27KT 9999 SCT047 15/05 Q1010

METARs EXPIRÉS :
  • 211150Z 24022G34KT 220V280 9999 BKN047 15/05 Q1010
  • 211120Z 24016KT 220V280 9999 BKN038 15/06 Q1010
  • 211050Z 25019KT 9999 SCT035 SCT042 14/06 Q1009
  • 211020Z 25018G28KT 230V290 9999 SCT033 SCT040 14/06 Q1009
  • 210950Z 25019G33KT 220V280 9999 SCT029 BKN035 13/06 Q1009
  • 210920Z 25016G28KT 9999 SCT025 SCT035 12/07 Q1009

TAF TAF EGLF
Valide du 21 à 12h jusqu'au 21 à 21h UTC


211058Z 2112/2121 25015KT 9999 SCT035
TEMPO 2112/2118 26020G30KT
ATIS : +44 09063 800 400 (*282)
Pas de NOTAMs connus pour ce terrain.
3 SIGMETs publiés pour la FIR London (EGTT) :
 
Turbulence forte
EGTT SIGMET 06 VALID 211200/211600 EGRR
EGTT LONDON FIR SEV TURB FCST WI N5100 W00800 - N5112 W00738 - N5044 W00626 - N4932 W00800 - N5100 W00800 FL200/370 MOV ENE 25KT NC=
Turbulence forte
EGTT SIGMET 05 VALID 211100/211500 EGRR
EGTT LONDON FIR SEV TURB FCST WI N5220 W00530 - N5338 W00530 - N5321 W00342 - N5050 W00431 - N5131 W00702 - N5220 W00530 SFC/FL060 MOV E 25KT NC=
Turbulence forte
EGTT SIGMET 04 VALID 210900/211200 EGRR
EGTT LONDON FIR SEV TURB FCST NE OF LINE N5500 W00211 - N5240 E00256 SFC/FL060 MOV NE 15KT NC=



MET'MAP, la Météo Aéronautique d'un coup d'oeil ! - Copyright ORBIFLY Décembre 2007 - Disclaimer

ORBIFLY MET'MAP TEAM :

Programmation & Développement : Alexandra Zaïnal
Conception & Développement : Baudouin d'Aumeries
Co-Programmation & Développement : Marc-Olivier Méhu
Soutien technique & logistique : Manuel Goepfert

Contact : metmap@orbifly.com




SOURCES & CREDITS :

   NOAA